Las Vegas, NM (87701)

6:35 PM MDT on March 26, 2017 (GMT -0600)
North 8th. Street Extension | | Change Station

Elev 6526 ft 35.61 °N, 105.23 °W | Updated 11 seconds ago

Partly Cloudy
Partly Cloudy
62.1 °F
Feels Like 62.1 °F
N
4.9
Wind Variable Wind from ESE
Gusts 8.7 mph

Today
High -- | Low -- °F
--% Chance of Precip.
Yesterday
High -- | Low -- °F
Precip. -- in
Pressure 29.72 in
Visibility 10.0 miles
Clouds Scattered Clouds 9000 ft
Dew Point -10 °F
Humidity 5%
Rainfall 0.00 in
Snow Depth Not available.
6:55 AM 7:17 PM
Waning Crescent, 2% visible
METAR KLVS 262353Z AUTO 02010KT 10SM SCT090 16/M04 A2991 RMK AO2 SLP063 T01611044 10172 20133 53008
Pressure 29.72 in
Visibility 10.0 miles
Clouds Scattered Clouds 9000 ft
Dew Point -10 °F
Humidity 5%
Rainfall 0.00 in
Snow Depth Not available.
6:55 AM 7:17 PM
Waning Crescent, 2% visible
METAR KLVS 262353Z AUTO 02010KT 10SM SCT090 16/M04 A2991 RMK AO2 SLP063 T01611044 10172 20133 53008

Get Severe Weather Alerts

Thanks for signing up!

Be on the lookout for a verification email in your inbox.

You'll start receiving the daily forecast at 8 AM.

×

10-Day Weather Forecast

Almanac

Astronomy

Mar. 26, 2017 Rise Set
Actual Time
Civil Twilight
Nautical Twilight
Astronomical Twilight
Moon
Length of Visible Light
Length of Day
Tomorrow will be .
, % of the Moon is Illuminated

Today's Extremes

State Highs State Lows

Community

WunderPhotos

Upload Photos

1,962,540 photos uploaded!

WunderBlog® & News

Nearby

Air Quality

  Air Quality AQ Index Pollutant
Not available.

Snow Depth

Station Depth Elevation

Earthquake Activity

City Distance Mag. Time & Date
Minimum magnitude displayed is 2.5.

Earthquake Activity

City Distance Mag. Time & Date
Minimum magnitude displayed is 2.5.

Coastal Water Temperatures

Place Temperature

Stations

Nearby Weather Stations

Station Location Temp. Windchill Dew Point Humidity Wind Precip. Elev Updated Type
                   

Watches & Warnings

There are currently no watches in effect.